sensor_id;sensor_type;location;lat;lon;timestamp;temperature;humidity
73112;HTU21D;61301;51.956;5.876;2023-07-20T00:01:25;22.44;53.78
73112;HTU21D;61301;51.956;5.876;2023-07-20T00:03:51;22.39;53.85
73112;HTU21D;61301;51.956;5.876;2023-07-20T00:06:21;22.40;53.59
73112;HTU21D;61301;51.956;5.876;2023-07-20T00:08:48;22.32;53.62
73112;HTU21D;61301;51.956;5.876;2023-07-20T00:11:14;22.29;53.51
73112;HTU21D;61301;51.956;5.876;2023-07-20T00:13:40;22.29;53.36
73112;HTU21D;61301;51.956;5.876;2023-07-20T00:16:06;22.27;53.32
73112;HTU21D;61301;51.956;5.876;2023-07-20T00:18:32;22.25;53.33
73112;HTU21D;61301;51.956;5.876;2023-07-20T00:20:58;22.28;53.12
73112;HTU21D;61301;51.956;5.876;2023-07-20T00:23:28;22.33;52.93
73112;HTU21D;61301;51.956;5.876;2023-07-20T00:25:54;22.37;52.80
73112;HTU21D;61301;51.956;5.876;2023-07-20T00:28:20;22.32;53.07
73112;HTU21D;61301;51.956;5.876;2023-07-20T00:30:48;22.28;53.12
73112;HTU21D;61301;51.956;5.876;2023-07-20T00:33:16;22.29;53.18
73112;HTU21D;61301;51.956;5.876;2023-07-20T00:35:43;22.29;53.04
73112;HTU21D;61301;51.956;5.876;2023-07-20T00:38:09;22.33;52.92
73112;HTU21D;61301;51.956;5.876;2023-07-20T00:40:41;22.38;52.88
73112;HTU21D;61301;51.956;5.876;2023-07-20T00:43:08;22.32;53.01
73112;HTU21D;61301;51.956;5.876;2023-07-20T00:45:34;22.29;52.95
73112;HTU21D;61301;51.956;5.876;2023-07-20T00:48:04;22.27;52.98
73112;HTU21D;61301;51.956;5.876;2023-07-20T00:50:31;22.26;53.04
73112;HTU21D;61301;51.956;5.876;2023-07-20T00:52:58;22.16;53.45
73112;HTU21D;61301;51.956;5.876;2023-07-20T00:55:24;22.09;53.70
73112;HTU21D;61301;51.956;5.876;2023-07-20T00:57:52;21.98;54.04
73112;HTU21D;61301;51.956;5.876;2023-07-20T01:00:19;21.92;54.03
73112;HTU21D;61301;51.956;5.876;2023-07-20T01:02:45;21.89;54.06
73112;HTU21D;61301;51.956;5.876;2023-07-20T01:05:12;21.89;54.10
73112;HTU21D;61301;51.956;5.876;2023-07-20T01:07:58;21.92;54.04
73112;HTU21D;61301;51.956;5.876;2023-07-20T01:10:40;21.92;54.12
73112;HTU21D;61301;51.956;5.876;2023-07-20T01:13:10;21.83;54.09
73112;HTU21D;61301;51.956;5.876;2023-07-20T01:15:38;21.87;53.98
73112;HTU21D;61301;51.956;5.876;2023-07-20T01:18:04;21.92;53.84
73112;HTU21D;61301;51.956;5.876;2023-07-20T01:20:32;21.93;54.28
73112;HTU21D;61301;51.956;5.876;2023-07-20T01:23:20;21.96;54.18
73112;HTU21D;61301;51.956;5.876;2023-07-20T01:33:54;21.92;54.21
73112;HTU21D;61301;51.956;5.876;2023-07-20T01:36:22;21.96;54.01
73112;HTU21D;61301;51.956;5.876;2023-07-20T01:38:49;22.02;53.85
73112;HTU21D;61301;51.956;5.876;2023-07-20T01:41:16;21.99;53.99
73112;HTU21D;61301;51.956;5.876;2023-07-20T01:43:42;21.96;54.17
73112;HTU21D;61301;51.956;5.876;2023-07-20T01:46:08;21.85;54.96
73112;HTU21D;61301;51.956;5.876;2023-07-20T01:48:34;21.78;54.87
73112;HTU21D;61301;51.956;5.876;2023-07-20T01:51:01;21.74;55.23
73112;HTU21D;61301;51.956;5.876;2023-07-20T01:53:27;21.55;56.19
73112;HTU21D;61301;51.956;5.876;2023-07-20T01:55:53;21.39;56.74
73112;HTU21D;61301;51.956;5.876;2023-07-20T01:58:22;21.44;56.26
73112;HTU21D;61301;51.956;5.876;2023-07-20T02:00:49;21.38;56.31
73112;HTU21D;61301;51.956;5.876;2023-07-20T02:03:15;21.37;56.00
73112;HTU21D;61301;51.956;5.876;2023-07-20T02:05:44;21.42;56.42
73112;HTU21D;61301;51.956;5.876;2023-07-20T02:08:10;21.39;56.10
73112;HTU21D;61301;51.956;5.876;2023-07-20T02:10:36;21.44;55.81
73112;HTU21D;61301;51.956;5.876;2023-07-20T02:13:02;21.50;55.55
73112;HTU21D;61301;51.956;5.876;2023-07-20T02:15:28;21.49;55.65
73112;HTU21D;61301;51.956;5.876;2023-07-20T02:17:54;21.47;55.70
73112;HTU21D;61301;51.956;5.876;2023-07-20T02:20:20;21.43;55.81
73112;HTU21D;61301;51.956;5.876;2023-07-20T02:22:46;21.40;55.82
73112;HTU21D;61301;51.956;5.876;2023-07-20T02:25:13;21.49;55.58
73112;HTU21D;61301;51.956;5.876;2023-07-20T02:27:39;21.53;55.67
73112;HTU21D;61301;51.956;5.876;2023-07-20T02:30:05;21.45;56.00
73112;HTU21D;61301;51.956;5.876;2023-07-20T02:32:31;21.46;55.79
73112;HTU21D;61301;51.956;5.876;2023-07-20T02:34:58;21.50;55.49
73112;HTU21D;61301;51.956;5.876;2023-07-20T02:37:24;21.46;55.64
73112;HTU21D;61301;51.956;5.876;2023-07-20T02:39:50;21.50;55.41
73112;HTU21D;61301;51.956;5.876;2023-07-20T02:42:16;21.54;55.19
73112;HTU21D;61301;51.956;5.876;2023-07-20T02:44:43;21.55;55.03
73112;HTU21D;61301;51.956;5.876;2023-07-20T02:47:09;21.55;54.92
73112;HTU21D;61301;51.956;5.876;2023-07-20T02:49:35;21.50;54.88
73112;HTU21D;61301;51.956;5.876;2023-07-20T02:52:01;21.38;55.33
73112;HTU21D;61301;51.956;5.876;2023-07-20T02:54:28;21.38;55.24
73112;HTU21D;61301;51.956;5.876;2023-07-20T02:56:56;21.38;55.12
73112;HTU21D;61301;51.956;5.876;2023-07-20T02:59:22;21.43;54.94
73112;HTU21D;61301;51.956;5.876;2023-07-20T03:01:48;21.42;54.84
73112;HTU21D;61301;51.956;5.876;2023-07-20T03:04:14;21.40;54.81
73112;HTU21D;61301;51.956;5.876;2023-07-20T03:06:40;21.40;54.78
73112;HTU21D;61301;51.956;5.876;2023-07-20T03:09:09;21.43;54.78
73112;HTU21D;61301;51.956;5.876;2023-07-20T03:11:35;21.43;54.66
73112;HTU21D;61301;51.956;5.876;2023-07-20T03:14:01;21.44;54.55
73112;HTU21D;61301;51.956;5.876;2023-07-20T03:16:27;21.38;54.68
73112;HTU21D;61301;51.956;5.876;2023-07-20T03:18:53;21.27;55.02
73112;HTU21D;61301;51.956;5.876;2023-07-20T03:21:20;21.11;55.19
73112;HTU21D;61301;51.956;5.876;2023-07-20T03:23:46;21.03;55.16
73112;HTU21D;61301;51.956;5.876;2023-07-20T03:26:12;20.96;55.13
73112;HTU21D;61301;51.956;5.876;2023-07-20T03:28:39;20.88;55.42
73112;HTU21D;61301;51.956;5.876;2023-07-20T03:31:05;20.81;55.49
73112;HTU21D;61301;51.956;5.876;2023-07-20T03:33:34;20.80;55.40
73112;HTU21D;61301;51.956;5.876;2023-07-20T03:36:00;20.81;55.26
73112;HTU21D;61301;51.956;5.876;2023-07-20T03:38:27;20.81;55.23
73112;HTU21D;61301;51.956;5.876;2023-07-20T03:40:58;20.81;55.20
73112;HTU21D;61301;51.956;5.876;2023-07-20T03:43:26;20.66;55.32
73112;HTU21D;61301;51.956;5.876;2023-07-20T03:45:52;20.58;55.53
73112;HTU21D;61301;51.956;5.876;2023-07-20T03:48:20;20.46;55.76
73112;HTU21D;61301;51.956;5.876;2023-07-20T03:50:48;20.37;55.88
73112;HTU21D;61301;51.956;5.876;2023-07-20T03:53:15;20.30;55.90
73112;HTU21D;61301;51.956;5.876;2023-07-20T03:55:48;20.28;56.01
73112;HTU21D;61301;51.956;5.876;2023-07-20T03:58:14;20.25;55.92
73112;HTU21D;61301;51.956;5.876;2023-07-20T04:00:45;20.26;55.93
73112;HTU21D;61301;51.956;5.876;2023-07-20T04:03:11;20.29;55.82
73112;HTU21D;61301;51.956;5.876;2023-07-20T04:05:37;20.33;55.85
73112;HTU21D;61301;51.956;5.876;2023-07-20T04:08:04;20.35;55.90
73112;HTU21D;61301;51.956;5.876;2023-07-20T04:10:29;20.36;55.96
73112;HTU21D;61301;51.956;5.876;2023-07-20T04:12:56;20.43;55.77
73112;HTU21D;61301;51.956;5.876;2023-07-20T04:15:22;20.46;55.69
73112;HTU21D;61301;51.956;5.876;2023-07-20T04:17:48;20.49;55.58
73112;HTU21D;61301;51.956;5.876;2023-07-20T04:20:14;20.49;55.71
73112;HTU21D;61301;51.956;5.876;2023-07-20T04:22:40;20.50;55.66
73112;HTU21D;61301;51.956;5.876;2023-07-20T04:25:09;20.57;55.68
73112;HTU21D;61301;51.956;5.876;2023-07-20T04:27:36;20.47;56.07
73112;HTU21D;61301;51.956;5.876;2023-07-20T04:30:02;20.50;55.95
73112;HTU21D;61301;51.956;5.876;2023-07-20T04:32:30;20.59;55.72
73112;HTU21D;61301;51.956;5.876;2023-07-20T04:34:59;20.61;55.55
73112;HTU21D;61301;51.956;5.876;2023-07-20T04:37:26;20.65;55.52
73112;HTU21D;61301;51.956;5.876;2023-07-20T04:39:52;20.53;56.71
73112;HTU21D;61301;51.956;5.876;2023-07-20T04:42:18;20.39;57.13
73112;HTU21D;61301;51.956;5.876;2023-07-20T04:44:44;20.39;56.99
73112;HTU21D;61301;51.956;5.876;2023-07-20T04:47:10;20.48;57.06
73112;HTU21D;61301;51.956;5.876;2023-07-20T04:49:38;20.50;56.83
73112;HTU21D;61301;51.956;5.876;2023-07-20T04:52:05;20.58;56.68
73112;HTU21D;61301;51.956;5.876;2023-07-20T04:54:32;20.65;56.43
73112;HTU21D;61301;51.956;5.876;2023-07-20T04:56:57;20.75;56.11
73112;HTU21D;61301;51.956;5.876;2023-07-20T04:59:24;20.84;55.98
73112;HTU21D;61301;51.956;5.876;2023-07-20T05:01:50;20.81;55.91
73112;HTU21D;61301;51.956;5.876;2023-07-20T05:04:17;20.92;55.71
73112;HTU21D;61301;51.956;5.876;2023-07-20T05:06:43;20.96;55.62
73112;HTU21D;61301;51.956;5.876;2023-07-20T05:09:09;21.03;55.65
73112;HTU21D;61301;51.956;5.876;2023-07-20T05:11:35;21.05;55.59
73112;HTU21D;61301;51.956;5.876;2023-07-20T05:14:01;21.08;55.54
73112;HTU21D;61301;51.956;5.876;2023-07-20T05:16:29;21.11;55.50
73112;HTU21D;61301;51.956;5.876;2023-07-20T05:18:59;21.15;55.60
73112;HTU21D;61301;51.956;5.876;2023-07-20T05:21:25;21.13;55.65
73112;HTU21D;61301;51.956;5.876;2023-07-20T05:23:52;21.19;55.54
73112;HTU21D;61301;51.956;5.876;2023-07-20T05:26:18;21.25;55.36
73112;HTU21D;61301;51.956;5.876;2023-07-20T05:28:44;21.37;55.16
73112;HTU21D;61301;51.956;5.876;2023-07-20T05:31:10;21.40;55.00
73112;HTU21D;61301;51.956;5.876;2023-07-20T05:33:36;21.39;55.09
73112;HTU21D;61301;51.956;5.876;2023-07-20T05:36:02;21.43;55.02
73112;HTU21D;61301;51.956;5.876;2023-07-20T05:38:28;21.40;55.12
73112;HTU21D;61301;51.956;5.876;2023-07-20T05:40:59;21.40;55.37
73112;HTU21D;61301;51.956;5.876;2023-07-20T05:43:26;21.44;55.33
73112;HTU21D;61301;51.956;5.876;2023-07-20T05:45:52;21.39;55.52
73112;HTU21D;61301;51.956;5.876;2023-07-20T05:48:19;21.35;55.52
73112;HTU21D;61301;51.956;5.876;2023-07-20T05:50:45;21.36;55.17
73112;HTU21D;61301;51.956;5.876;2023-07-20T05:53:11;21.48;54.97
73112;HTU21D;61301;51.956;5.876;2023-07-20T05:55:37;21.55;54.64
73112;HTU21D;61301;51.956;5.876;2023-07-20T05:58:04;21.57;54.60
73112;HTU21D;61301;51.956;5.876;2023-07-20T06:00:30;21.61;54.46
73112;HTU21D;61301;51.956;5.876;2023-07-20T06:02:56;21.65;54.00
73112;HTU21D;61301;51.956;5.876;2023-07-20T06:05:22;21.67;53.88
73112;HTU21D;61301;51.956;5.876;2023-07-20T06:07:50;21.73;53.62
73112;HTU21D;61301;51.956;5.876;2023-07-20T06:10:16;21.73;53.48
73112;HTU21D;61301;51.956;5.876;2023-07-20T06:12:42;21.62;53.49
73112;HTU21D;61301;51.956;5.876;2023-07-20T06:15:33;21.72;53.33
73112;HTU21D;61301;51.956;5.876;2023-07-20T06:18:01;21.76;53.27
73112;HTU21D;61301;51.956;5.876;2023-07-20T06:20:27;21.79;53.06
73112;HTU21D;61301;51.956;5.876;2023-07-20T06:22:56;21.93;52.94
73112;HTU21D;61301;51.956;5.876;2023-07-20T06:25:22;22.06;52.80
73112;HTU21D;61301;51.956;5.876;2023-07-20T06:27:49;22.09;52.63
73112;HTU21D;61301;51.956;5.876;2023-07-20T06:30:35;22.03;52.49
73112;HTU21D;61301;51.956;5.876;2023-07-20T06:33:01;22.10;52.55
73112;HTU21D;61301;51.956;5.876;2023-07-20T06:35:27;22.22;52.36
73112;HTU21D;61301;51.956;5.876;2023-07-20T06:37:53;22.29;52.01
73112;HTU21D;61301;51.956;5.876;2023-07-20T06:40:20;22.36;51.79
73112;HTU21D;61301;51.956;5.876;2023-07-20T06:42:46;22.46;51.64
73112;HTU21D;61301;51.956;5.876;2023-07-20T06:45:12;22.50;50.26
73112;HTU21D;61301;51.956;5.876;2023-07-20T06:47:39;22.46;50.30
73112;HTU21D;61301;51.956;5.876;2023-07-20T06:50:09;22.53;50.56
73112;HTU21D;61301;51.956;5.876;2023-07-20T06:52:36;22.63;50.23
73112;HTU21D;61301;51.956;5.876;2023-07-20T06:55:03;22.70;49.92
73112;HTU21D;61301;51.956;5.876;2023-07-20T06:57:29;22.80;49.87
73112;HTU21D;61301;51.956;5.876;2023-07-20T06:59:55;22.85;49.72
73112;HTU21D;61301;51.956;5.876;2023-07-20T07:02:21;22.95;49.73
73112;HTU21D;61301;51.956;5.876;2023-07-20T07:04:47;23.01;49.08
73112;HTU21D;61301;51.956;5.876;2023-07-20T07:07:16;23.10;49.04
73112;HTU21D;61301;51.956;5.876;2023-07-20T07:09:42;23.22;48.61
73112;HTU21D;61301;51.956;5.876;2023-07-20T07:12:08;23.23;47.86
73112;HTU21D;61301;51.956;5.876;2023-07-20T07:14:34;23.37;47.88
73112;HTU21D;61301;51.956;5.876;2023-07-20T07:17:01;23.57;47.50
73112;HTU21D;61301;51.956;5.876;2023-07-20T07:19:27;23.73;47.35
73112;HTU21D;61301;51.956;5.876;2023-07-20T07:21:53;23.82;46.86
73112;HTU21D;61301;51.956;5.876;2023-07-20T07:24:19;23.94;46.80
73112;HTU21D;61301;51.956;5.876;2023-07-20T07:26:45;23.94;46.19
73112;HTU21D;61301;51.956;5.876;2023-07-20T07:29:11;24.02;45.78
73112;HTU21D;61301;51.956;5.876;2023-07-20T07:31:37;23.89;45.71
73112;HTU21D;61301;51.956;5.876;2023-07-20T07:34:04;23.75;46.60
73112;HTU21D;61301;51.956;5.876;2023-07-20T07:36:31;23.86;46.80
73112;HTU21D;61301;51.956;5.876;2023-07-20T07:38:57;24.02;46.37
73112;HTU21D;61301;51.956;5.876;2023-07-20T07:41:23;24.05;45.94
73112;HTU21D;61301;51.956;5.876;2023-07-20T07:43:49;24.08;46.07
73112;HTU21D;61301;51.956;5.876;2023-07-20T07:46:15;24.12;46.29
73112;HTU21D;61301;51.956;5.876;2023-07-20T07:48:42;24.13;46.29
73112;HTU21D;61301;51.956;5.876;2023-07-20T07:51:08;23.97;44.72
73112;HTU21D;61301;51.956;5.876;2023-07-20T07:53:34;23.62;45.56
73112;HTU21D;61301;51.956;5.876;2023-07-20T07:56:02;23.37;45.72
73112;HTU21D;61301;51.956;5.876;2023-07-20T07:58:29;23.38;45.69
73112;HTU21D;61301;51.956;5.876;2023-07-20T08:00:55;23.64;45.74
73112;HTU21D;61301;51.956;5.876;2023-07-20T08:03:21;23.92;45.33
73112;HTU21D;61301;51.956;5.876;2023-07-20T08:05:50;24.15;44.55
73112;HTU21D;61301;51.956;5.876;2023-07-20T08:08:16;24.23;43.08
73112;HTU21D;61301;51.956;5.876;2023-07-20T08:10:43;24.11;43.71
73112;HTU21D;61301;51.956;5.876;2023-07-20T08:13:09;24.23;43.51
73112;HTU21D;61301;51.956;5.876;2023-07-20T08:15:35;24.48;43.04
73112;HTU21D;61301;51.956;5.876;2023-07-20T08:18:00;24.80;43.14
73112;HTU21D;61301;51.956;5.876;2023-07-20T08:20:26;25.09;42.75
73112;HTU21D;61301;51.956;5.876;2023-07-20T08:22:54;25.34;42.95
73112;HTU21D;61301;51.956;5.876;2023-07-20T08:25:21;25.62;43.00
73112;HTU21D;61301;51.956;5.876;2023-07-20T08:27:47;25.77;41.17
73112;HTU21D;61301;51.956;5.876;2023-07-20T08:30:13;25.92;40.55
73112;HTU21D;61301;51.956;5.876;2023-07-20T08:32:39;26.05;39.57
73112;HTU21D;61301;51.956;5.876;2023-07-20T08:35:06;26.02;38.19
73112;HTU21D;61301;51.956;5.876;2023-07-20T08:37:32;26.06;39.11
73112;HTU21D;61301;51.956;5.876;2023-07-20T08:39:58;26.07;38.11
73112;HTU21D;61301;51.956;5.876;2023-07-20T08:42:24;26.24;38.68
73112;HTU21D;61301;51.956;5.876;2023-07-20T08:44:52;25.99;36.93
73112;HTU21D;61301;51.956;5.876;2023-07-20T08:47:20;25.74;38.09
73112;HTU21D;61301;51.956;5.876;2023-07-20T08:49:48;25.56;37.26
73112;HTU21D;61301;51.956;5.876;2023-07-20T08:52:15;25.69;37.95
73112;HTU21D;61301;51.956;5.876;2023-07-20T08:54:41;25.97;37.77
73112;HTU21D;61301;51.956;5.876;2023-07-20T08:57:08;25.89;37.53
73112;HTU21D;61301;51.956;5.876;2023-07-20T08:59:36;25.81;37.38
73112;HTU21D;61301;51.956;5.876;2023-07-20T09:02:04;25.47;37.67
73112;HTU21D;61301;51.956;5.876;2023-07-20T09:04:31;25.42;38.22
73112;HTU21D;61301;51.956;5.876;2023-07-20T09:06:57;25.00;39.10
73112;HTU21D;61301;51.956;5.876;2023-07-20T09:09:23;25.05;39.00
73112;HTU21D;61301;51.956;5.876;2023-07-20T09:11:49;25.13;39.26
73112;HTU21D;61301;51.956;5.876;2023-07-20T09:14:16;25.24;39.11
73112;HTU21D;61301;51.956;5.876;2023-07-20T09:16:55;25.49;39.01
73112;HTU21D;61301;51.956;5.876;2023-07-20T09:19:22;25.34;38.46
73112;HTU21D;61301;51.956;5.876;2023-07-20T09:21:49;25.45;38.90
73112;HTU21D;61301;51.956;5.876;2023-07-20T09:24:17;25.52;38.54
73112;HTU21D;61301;51.956;5.876;2023-07-20T09:26:44;25.61;39.05
73112;HTU21D;61301;51.956;5.876;2023-07-20T09:29:11;25.65;38.94
73112;HTU21D;61301;51.956;5.876;2023-07-20T09:31:37;25.58;39.30
73112;HTU21D;61301;51.956;5.876;2023-07-20T09:34:05;25.38;39.56
73112;HTU21D;61301;51.956;5.876;2023-07-20T09:36:36;25.32;39.71
73112;HTU21D;61301;51.956;5.876;2023-07-20T09:39:05;25.27;40.65
73112;HTU21D;61301;51.956;5.876;2023-07-20T09:41:40;25.32;39.46
73112;HTU21D;61301;51.956;5.876;2023-07-20T09:44:07;25.15;40.20
73112;HTU21D;61301;51.956;5.876;2023-07-20T09:46:46;25.30;40.69
73112;HTU21D;61301;51.956;5.876;2023-07-20T09:49:13;25.49;40.72
73112;HTU21D;61301;51.956;5.876;2023-07-20T09:51:40;25.77;40.08
73112;HTU21D;61301;51.956;5.876;2023-07-20T09:54:07;25.80;39.31
73112;HTU21D;61301;51.956;5.876;2023-07-20T09:56:33;25.86;39.23
73112;HTU21D;61301;51.956;5.876;2023-07-20T09:59:00;25.98;39.50
73112;HTU21D;61301;51.956;5.876;2023-07-20T10:01:26;26.20;39.07
73112;HTU21D;61301;51.956;5.876;2023-07-20T10:03:54;26.38;38.20
73112;HTU21D;61301;51.956;5.876;2023-07-20T10:06:23;26.39;38.34
73112;HTU21D;61301;51.956;5.876;2023-07-20T10:08:53;26.35;37.56
73112;HTU21D;61301;51.956;5.876;2023-07-20T10:11:22;26.19;36.21
73112;HTU21D;61301;51.956;5.876;2023-07-20T10:13:53;26.40;36.86
73112;HTU21D;61301;51.956;5.876;2023-07-20T10:16:23;26.26;36.50
73112;HTU21D;61301;51.956;5.876;2023-07-20T10:19:07;26.32;37.14
73112;HTU21D;61301;51.956;5.876;2023-07-20T10:21:40;26.50;37.43
73112;HTU21D;61301;51.956;5.876;2023-07-20T10:24:08;26.55;36.53
73112;HTU21D;61301;51.956;5.876;2023-07-20T10:26:35;26.48;35.25
73112;HTU21D;61301;51.956;5.876;2023-07-20T10:29:02;26.53;34.34
73112;HTU21D;61301;51.956;5.876;2023-07-20T10:31:29;26.68;34.84
73112;HTU21D;61301;51.956;5.876;2023-07-20T10:33:58;27.12;34.91
73112;HTU21D;61301;51.956;5.876;2023-07-20T10:36:25;27.51;32.78
73112;HTU21D;61301;51.956;5.876;2023-07-20T10:38:57;27.43;32.15
73112;HTU21D;61301;51.956;5.876;2023-07-20T10:41:34;27.67;33.54
73112;HTU21D;61301;51.956;5.876;2023-07-20T10:44:06;27.79;33.40
73112;HTU21D;61301;51.956;5.876;2023-07-20T10:49:09;28.15;33.70
73112;HTU21D;61301;51.956;5.876;2023-07-20T10:51:43;28.34;32.84
73112;HTU21D;61301;51.956;5.876;2023-07-20T10:56:42;28.55;32.00
73112;HTU21D;61301;51.956;5.876;2023-07-20T11:01:54;28.65;31.66
73112;HTU21D;61301;51.956;5.876;2023-07-20T11:04:44;29.04;31.80
73112;HTU21D;61301;51.956;5.876;2023-07-20T11:07:21;29.07;31.84
73112;HTU21D;61301;51.956;5.876;2023-07-20T11:10:13;29.13;29.86
73112;HTU21D;61301;51.956;5.876;2023-07-20T11:12:39;28.93;31.17
73112;HTU21D;61301;51.956;5.876;2023-07-20T11:15:06;28.83;31.42
73112;HTU21D;61301;51.956;5.876;2023-07-20T11:17:33;28.53;32.46
73112;HTU21D;61301;51.956;5.876;2023-07-20T11:20:00;28.75;32.84
73112;HTU21D;61301;51.956;5.876;2023-07-20T11:22:31;29.03;32.73
73112;HTU21D;61301;51.956;5.876;2023-07-20T11:24:57;29.23;32.80
73112;HTU21D;61301;51.956;5.876;2023-07-20T11:27:24;29.30;31.12
73112;HTU21D;61301;51.956;5.876;2023-07-20T11:29:50;29.08;31.09
73112;HTU21D;61301;51.956;5.876;2023-07-20T11:32:23;28.99;31.96
73112;HTU21D;61301;51.956;5.876;2023-07-20T11:34:49;28.63;31.44
73112;HTU21D;61301;51.956;5.876;2023-07-20T11:37:16;28.31;32.37
73112;HTU21D;61301;51.956;5.876;2023-07-20T11:39:42;28.29;33.29
73112;HTU21D;61301;51.956;5.876;2023-07-20T11:42:08;28.16;33.44
73112;HTU21D;61301;51.956;5.876;2023-07-20T11:44:35;28.15;33.05
73112;HTU21D;61301;51.956;5.876;2023-07-20T11:49:34;27.55;33.40
73112;HTU21D;61301;51.956;5.876;2023-07-20T11:52:00;26.94;34.80
73112;HTU21D;61301;51.956;5.876;2023-07-20T11:54:27;27.02;35.07
73112;HTU21D;61301;51.956;5.876;2023-07-20T11:56:54;27.23;35.00
73112;HTU21D;61301;51.956;5.876;2023-07-20T11:59:21;27.75;34.64
73112;HTU21D;61301;51.956;5.876;2023-07-20T12:01:47;28.28;34.31
73112;HTU21D;61301;51.956;5.876;2023-07-20T12:04:13;28.49;33.28
73112;HTU21D;61301;51.956;5.876;2023-07-20T12:06:39;28.39;34.08
73112;HTU21D;61301;51.956;5.876;2023-07-20T12:09:05;28.24;33.51
73112;HTU21D;61301;51.956;5.876;2023-07-20T12:11:36;28.20;33.83
73112;HTU21D;61301;51.956;5.876;2023-07-20T12:14:04;28.16;33.54
73112;HTU21D;61301;51.956;5.876;2023-07-20T12:16:32;27.75;33.34
73112;HTU21D;61301;51.956;5.876;2023-07-20T12:19:07;27.89;33.70
73112;HTU21D;61301;51.956;5.876;2023-07-20T12:21:35;28.11;32.97
73112;HTU21D;61301;51.956;5.876;2023-07-20T12:24:04;28.32;33.00
73112;HTU21D;61301;51.956;5.876;2023-07-20T12:26:31;28.70;32.97
73112;HTU21D;61301;51.956;5.876;2023-07-20T12:28:58;29.22;31.88
73112;HTU21D;61301;51.956;5.876;2023-07-20T12:31:24;29.34;31.50
73112;HTU21D;61301;51.956;5.876;2023-07-20T12:33:51;29.60;31.21
73112;HTU21D;61301;51.956;5.876;2023-07-20T12:36:17;29.71;31.39
73112;HTU21D;61301;51.956;5.876;2023-07-20T12:38:44;29.76;31.67
73112;HTU21D;61301;51.956;5.876;2023-07-20T12:41:11;29.76;29.80
73112;HTU21D;61301;51.956;5.876;2023-07-20T12:43:41;29.86;30.13
73112;HTU21D;61301;51.956;5.876;2023-07-20T12:46:08;29.76;29.64
73112;HTU21D;61301;51.956;5.876;2023-07-20T12:48:35;29.48;29.40
73112;HTU21D;61301;51.956;5.876;2023-07-20T12:51:03;29.46;29.60
73112;HTU21D;61301;51.956;5.876;2023-07-20T12:53:31;29.64;30.09
73112;HTU21D;61301;51.956;5.876;2023-07-20T12:55:59;29.83;29.15
73112;HTU21D;61301;51.956;5.876;2023-07-20T12:58:25;29.89;28.73
73112;HTU21D;61301;51.956;5.876;2023-07-20T13:00:51;29.72;30.11
73112;HTU21D;61301;51.956;5.876;2023-07-20T13:03:17;29.59;30.14
73112;HTU21D;61301;51.956;5.876;2023-07-20T13:05:46;29.90;29.76
73112;HTU21D;61301;51.956;5.876;2023-07-20T13:08:12;29.95;28.23
73112;HTU21D;61301;51.956;5.876;2023-07-20T13:10:38;30.26;28.84
73112;HTU21D;61301;51.956;5.876;2023-07-20T13:13:05;30.39;27.71
73112;HTU21D;61301;51.956;5.876;2023-07-20T13:15:32;30.40;28.16
73112;HTU21D;61301;51.956;5.876;2023-07-20T13:17:59;30.37;27.91
73112;HTU21D;61301;51.956;5.876;2023-07-20T13:20:26;30.70;27.91
73112;HTU21D;61301;51.956;5.876;2023-07-20T13:22:53;30.83;27.00
73112;HTU21D;61301;51.956;5.876;2023-07-20T13:25:19;31.09;26.68
73112;HTU21D;61301;51.956;5.876;2023-07-20T13:27:45;31.25;26.74
73112;HTU21D;61301;51.956;5.876;2023-07-20T13:30:12;31.43;25.04
73112;HTU21D;61301;51.956;5.876;2023-07-20T13:32:45;31.55;25.55
73112;HTU21D;61301;51.956;5.876;2023-07-20T13:35:12;31.50;25.97
73112;HTU21D;61301;51.956;5.876;2023-07-20T13:37:38;31.30;26.22
73112;HTU21D;61301;51.956;5.876;2023-07-20T13:40:05;30.91;26.07
73112;HTU21D;61301;51.956;5.876;2023-07-20T13:42:32;30.13;26.92
73112;HTU21D;61301;51.956;5.876;2023-07-20T13:44:58;29.96;27.41
73112;HTU21D;61301;51.956;5.876;2023-07-20T13:47:26;29.97;27.94
73112;HTU21D;61301;51.956;5.876;2023-07-20T13:49:52;30.34;28.11
73112;HTU21D;61301;51.956;5.876;2023-07-20T13:52:18;30.59;28.03
73112;HTU21D;61301;51.956;5.876;2023-07-20T13:54:44;30.41;27.59
73112;HTU21D;61301;51.956;5.876;2023-07-20T13:57:10;30.82;26.95
73112;HTU21D;61301;51.956;5.876;2023-07-20T13:59:36;30.90;27.08
73112;HTU21D;61301;51.956;5.876;2023-07-20T14:02:03;30.92;26.89
73112;HTU21D;61301;51.956;5.876;2023-07-20T14:04:29;30.74;27.37
73112;HTU21D;61301;51.956;5.876;2023-07-20T14:06:56;30.64;27.55
73112;HTU21D;61301;51.956;5.876;2023-07-20T14:09:22;30.60;27.80
73112;HTU21D;61301;51.956;5.876;2023-07-20T14:11:48;30.74;28.07
73112;HTU21D;61301;51.956;5.876;2023-07-20T14:14:14;30.56;27.90
73112;HTU21D;61301;51.956;5.876;2023-07-20T14:16:40;30.34;27.55
73112;HTU21D;61301;51.956;5.876;2023-07-20T14:19:07;30.06;28.51
73112;HTU21D;61301;51.956;5.876;2023-07-20T14:21:33;30.06;28.30
73112;HTU21D;61301;51.956;5.876;2023-07-20T14:23:59;29.85;28.03
73112;HTU21D;61301;51.956;5.876;2023-07-20T14:26:25;29.74;28.91
73112;HTU21D;61301;51.956;5.876;2023-07-20T14:28:51;29.54;28.27
73112;HTU21D;61301;51.956;5.876;2023-07-20T14:31:17;29.51;28.70
73112;HTU21D;61301;51.956;5.876;2023-07-20T14:33:44;29.80;28.89
73112;HTU21D;61301;51.956;5.876;2023-07-20T14:36:10;30.16;28.35
73112;HTU21D;61301;51.956;5.876;2023-07-20T14:38:36;30.65;28.42
73112;HTU21D;61301;51.956;5.876;2023-07-20T14:41:03;30.67;28.16
73112;HTU21D;61301;51.956;5.876;2023-07-20T14:43:31;30.65;28.39
73112;HTU21D;61301;51.956;5.876;2023-07-20T14:45:57;30.51;28.03
73112;HTU21D;61301;51.956;5.876;2023-07-20T14:48:23;30.12;27.77
73112;HTU21D;61301;51.956;5.876;2023-07-20T14:50:49;30.00;28.48
73112;HTU21D;61301;51.956;5.876;2023-07-20T14:53:16;30.13;28.90
73112;HTU21D;61301;51.956;5.876;2023-07-20T14:55:42;30.16;28.72
73112;HTU21D;61301;51.956;5.876;2023-07-20T14:58:08;30.15;28.10
73112;HTU21D;61301;51.956;5.876;2023-07-20T15:00:34;30.13;28.70
73112;HTU21D;61301;51.956;5.876;2023-07-20T15:03:00;29.91;28.26
73112;HTU21D;61301;51.956;5.876;2023-07-20T15:05:26;29.35;28.68
73112;HTU21D;61301;51.956;5.876;2023-07-20T15:07:52;29.39;29.23
73112;HTU21D;61301;51.956;5.876;2023-07-20T15:10:19;29.48;28.36
73112;HTU21D;61301;51.956;5.876;2023-07-20T15:12:45;29.34;28.81
73112;HTU21D;61301;51.956;5.876;2023-07-20T15:15:13;29.22;28.71
73112;HTU21D;61301;51.956;5.876;2023-07-20T15:17:42;29.23;28.77
73112;HTU21D;61301;51.956;5.876;2023-07-20T15:20:10;29.58;28.27
73112;HTU21D;61301;51.956;5.876;2023-07-20T15:22:36;29.93;28.52
73112;HTU21D;61301;51.956;5.876;2023-07-20T15:25:04;29.82;27.82
73112;HTU21D;61301;51.956;5.876;2023-07-20T15:27:30;29.71;27.68
73112;HTU21D;61301;51.956;5.876;2023-07-20T15:29:57;29.38;28.19
73112;HTU21D;61301;51.956;5.876;2023-07-20T15:32:23;28.93;28.07
73112;HTU21D;61301;51.956;5.876;2023-07-20T15:34:49;28.79;29.04